Time;durP1;ratioP1;P1;durP2;ratioP2;P2;SDS_P1;SDS_P2;PMS_P1;PMS_P2;Temp;Humidity;BMP_temperature;BMP_pressure;BME280_temperature;BME280_humidity;BME280_pressure;Samples;Min_cycle;Max_cycle;Signal;HPM_P1;HPM_P2
2021/01/14 00:02:25;;;;;;;47.70;22.60;;;51.70;2099.20;;;;;;5105512;28;20123;-69
2021/01/14 00:04:51;;;;;;;52.30;23.83;;;51.80;2124.80;;;;;;5105191;28;20046;-67
2021/01/14 00:07:18;;;;;;;49.65;22.60;;;51.70;2099.20;;;;;;5107676;28;20501;-66
2021/01/14 00:09:44;;;;;;;49.03;22.45;;;51.80;2099.20;;;;;;5110430;28;20031;-64
2021/01/14 00:12:10;;;;;;;49.63;23.00;;;51.80;2099.20;;;;;;5104593;28;20024;-71
2021/01/14 00:14:36;;;;;;;53.38;24.13;;;51.70;2124.80;;;;;;5101761;28;20132;-65
2021/01/14 00:17:02;;;;;;;42.05;21.33;;;51.80;2073.60;;;;;;5107840;28;20044;-69
2021/01/14 00:19:28;;;;;;;44.35;21.08;;;51.80;2073.60;;;;;;5103959;28;20045;-69
2021/01/14 00:21:54;;;;;;;47.53;20.50;;;51.80;2048.00;;;;;;5110483;28;20508;-69
2021/01/14 00:24:20;;;;;;;49.00;21.50;;;51.80;2048.00;;;;;;5111884;28;20032;-70
2021/01/14 00:26:46;;;;;;;45.63;21.90;;;51.80;2048.00;;;;;;5094680;28;20036;-68
2021/01/14 00:29:12;;;;;;;45.88;19.92;;;51.80;2048.00;;;;;;5093413;28;20020;-68
2021/01/14 00:31:38;;;;;;;44.65;21.83;;;51.90;2048.00;;;;;;5095877;28;20032;-68
2021/01/14 00:34:04;;;;;;;46.30;20.35;;;51.90;2048.00;;;;;;5109631;28;20030;-70
2021/01/14 00:37:50;;;;;;;39.65;18.05;;;51.90;2048.00;;;;;;5110814;28;20085;-65
2021/01/14 00:39:24;;;;;;;41.35;18.88;;;51.80;2022.40;;;;;;5113978;28;20024;-68
2021/01/14 00:41:50;;;;;;;40.72;20.00;;;51.80;2048.00;;;;;;5110487;28;20020;-69
2021/01/14 00:44:16;;;;;;;39.13;16.88;;;51.70;2048.00;;;;;;5115758;28;20034;-73
2021/01/14 00:46:42;;;;;;;45.97;19.70;;;51.60;2048.00;;;;;;5115776;28;20015;-66
2021/01/14 00:49:07;;;;;;;46.25;20.95;;;51.50;2048.00;;;;;;5101487;28;20049;-65
2021/01/14 00:51:37;;;;;;;42.17;17.80;;;51.50;2048.00;;;;;;5115766;28;20354;-67
2021/01/14 00:54:03;;;;;;;41.33;18.13;;;51.50;2048.00;;;;;;5110642;28;20482;-68
2021/01/14 00:56:37;;;;;;;37.05;17.90;;;51.50;2073.60;;;;;;5095145;28;20089;-70
2021/01/14 00:59:03;;;;;;;38.78;18.08;;;51.40;2073.60;;;;;;5095291;28;20020;-71
2021/01/14 01:01:30;;;;;;;37.33;17.85;;;51.40;2048.00;;;;;;5095497;28;20102;-66
2021/01/14 01:03:56;;;;;;;40.08;17.00;;;51.40;2048.00;;;;;;5094794;28;20020;-70
2021/01/14 01:06:23;;;;;;;40.17;15.48;;;51.40;2048.00;;;;;;5094689;28;20043;-71
2021/01/14 01:08:50;;;;;;;35.47;17.40;;;51.40;2048.00;;;;;;5094828;28;20048;-68
2021/01/14 01:11:26;;;;;;;35.95;16.83;;;51.40;2048.00;;;;;;5083776;28;20048;-64
2021/01/14 01:13:53;;;;;;;32.38;14.45;;;51.30;2022.40;;;;;;5102843;28;20054;-67
2021/01/14 01:16:19;;;;;;;29.77;15.02;;;51.30;2048.00;;;;;;5112634;28;20038;-67
2021/01/14 01:18:46;;;;;;;30.08;14.73;;;51.30;2048.00;;;;;;5112171;28;20453;-68
2021/01/14 01:21:12;;;;;;;37.03;17.63;;;51.30;2048.00;;;;;;5086769;28;20384;-67
2021/01/14 01:23:38;;;;;;;39.65;17.40;;;51.40;2048.00;;;;;;5113438;28;20400;-67
2021/01/14 01:26:04;;;;;;;34.85;16.65;;;51.40;2048.00;;;;;;5114859;28;20027;-64
2021/01/14 01:28:30;;;;;;;38.00;17.00;;;51.40;2048.00;;;;;;5083106;28;20023;-65
2021/01/14 01:30:55;;;;;;;32.75;15.88;;;51.50;2048.00;;;;;;5110520;28;20410;-67
2021/01/14 01:33:27;;;;;;;38.47;16.77;;;51.40;2022.40;;;;;;5104856;28;20529;-68
2021/01/14 01:35:54;;;;;;;33.63;16.73;;;51.50;2022.40;;;;;;5111634;28;20031;-67
2021/01/14 01:38:20;;;;;;;31.10;16.75;;;51.50;2022.40;;;;;;5111583;28;20073;-68
2021/01/14 01:40:56;;;;;;;33.53;15.75;;;51.50;2022.40;;;;;;5109458;28;20461;-67
2021/01/14 01:43:23;;;;;;;35.50;16.25;;;51.50;2022.40;;;;;;5098157;28;20031;-68
2021/01/14 01:45:49;;;;;;;32.22;14.65;;;51.50;2022.40;;;;;;5093917;28;20382;-70
2021/01/14 01:48:17;;;;;;;29.92;14.98;;;51.50;2022.40;;;;;;5094016;28;20043;-69
2021/01/14 01:50:44;;;;;;;30.50;14.80;;;51.50;1996.80;;;;;;5114626;28;20023;-67
2021/01/14 01:53:11;;;;;;;30.17;14.85;;;51.50;2022.40;;;;;;5114006;28;20512;-64
2021/01/14 01:55:37;;;;;;;28.58;14.18;;;51.40;2022.40;;;;;;5114619;28;20036;-69
2021/01/14 01:58:04;;;;;;;30.20;14.77;;;51.50;2022.40;;;;;;5114604;28;20020;-71
2021/01/14 02:00:30;;;;;;;31.15;13.55;;;51.40;2022.40;;;;;;5114113;28;20055;-70
2021/01/14 02:02:56;;;;;;;28.05;12.70;;;51.40;2022.40;;;;;;5114329;28;20019;-71
2021/01/14 02:05:22;;;;;;;27.00;12.57;;;51.30;1996.80;;;;;;5115003;28;20052;-65
2021/01/14 02:08:14;;;;;;;29.42;14.75;;;51.20;1996.80;;;;;;5110158;28;20386;-67
2021/01/14 02:10:57;;;;;;;28.70;14.23;;;51.30;2022.40;;;;;;5086693;28;20058;-70
2021/01/14 02:13:41;;;;;;;28.23;14.20;;;51.30;2022.40;;;;;;5094194;28;20024;-68
2021/01/14 02:16:08;;;;;;;28.55;12.18;;;51.20;2022.40;;;;;;5095402;28;20028;-70
2021/01/14 02:18:34;;;;;;;32.03;14.20;;;51.20;2022.40;;;;;;5096287;28;20043;-72
2021/01/14 02:21:03;;;;;;;30.42;13.32;;;51.20;2022.40;;;;;;5109731;28;20073;-70
2021/01/14 02:23:56;;;;;;;33.00;15.80;;;51.20;2022.40;;;;;;5108468;28;20035;-69
2021/01/14 02:26:28;;;;;;;34.05;13.88;;;26.50;2022.40;;;;;;5098680;28;20020;-70
2021/01/14 02:28:55;;;;;;;34.00;14.45;;;26.40;2048.00;;;;;;5093919;28;20073;-65
2021/01/14 02:31:22;;;;;;;29.52;13.93;;;26.40;2022.40;;;;;;5093549;28;20020;-64
2021/01/14 02:33:53;;;;;;;33.45;14.80;;;26.40;2022.40;;;;;;5093218;28;20028;-68
2021/01/14 02:36:20;;;;;;;32.20;15.00;;;26.50;2201.60;;;;;;5093060;28;20050;-68
2021/01/14 02:38:46;;;;;;;30.67;13.90;;;26.40;2022.40;;;;;;5092762;28;20047;-65
2021/01/14 02:41:12;;;;;;;33.15;14.45;;;26.40;1996.80;;;;;;5093131;28;20093;-65
2021/01/14 02:43:38;;;;;;;30.50;13.90;;;26.40;1996.80;;;;;;5093096;28;20019;-68
2021/01/14 02:46:05;;;;;;;26.40;13.93;;;26.30;2022.40;;;;;;5093594;28;20027;-70
2021/01/14 02:48:55;;;;;;;28.58;13.05;;;26.30;2022.40;;;;;;5092736;28;20009;-69
2021/01/14 02:51:32;;;;;;;28.83;12.82;;;26.40;1996.80;;;;;;5092666;28;20381;-69
2021/01/14 02:53:59;;;;;;;26.80;13.18;;;26.40;1996.80;;;;;;5092588;28;20028;-69
2021/01/14 02:56:31;;;;;;;28.20;13.20;;;26.30;2022.40;;;;;;5092909;28;20377;-69
2021/01/14 02:58:57;;;;;;;25.33;12.77;;;26.40;1996.80;;;;;;5092831;28;20024;-69
2021/01/14 03:01:23;;;;;;;28.02;12.18;;;26.40;1996.80;;;;;;5093151;28;20028;-69
2021/01/14 03:03:48;;;;;;;26.17;12.18;;;26.40;1996.80;;;;;;5092755;28;20432;-69
2021/01/14 03:06:14;;;;;;;26.48;12.93;;;26.40;1971.20;;;;;;5092719;28;20036;-68
2021/01/14 03:08:40;;;;;;;29.17;11.80;;;26.50;1971.20;;;;;;5092768;28;20111;-68
2021/01/14 03:11:05;;;;;;;25.70;12.15;;;26.50;1945.60;;;;;;5092835;28;20024;-69
2021/01/14 03:13:31;;;;;;;27.77;10.90;;;26.50;1945.60;;;;;;5092484;28;20484;-69
2021/01/14 03:15:57;;;;;;;25.20;11.18;;;51.20;1996.80;;;;;;5074772;28;20048;-68
2021/01/14 03:18:22;;;;;;;21.77;11.57;;;51.20;1971.20;;;;;;5092827;28;20047;-69
2021/01/14 03:20:49;;;;;;;26.77;10.55;;;51.20;1945.60;;;;;;5092842;28;20032;-69
2021/01/14 03:23:15;;;;;;;27.63;10.85;;;51.20;1945.60;;;;;;5092092;28;20016;-70
2021/01/14 03:25:41;;;;;;;22.48;10.23;;;51.20;1945.60;;;;;;5092810;28;20012;-69
2021/01/14 03:28:06;;;;;;;19.88;9.10;;;26.50;1920.00;;;;;;5092457;28;20370;-69
2021/01/14 03:30:32;;;;;;;23.52;10.05;;;51.20;1920.00;;;;;;5092819;28;20374;-68
2021/01/14 03:32:57;;;;;;;17.98;9.60;;;51.20;1920.00;;;;;;5091134;28;20386;-69
2021/01/14 03:35:23;;;;;;;18.73;9.20;;;51.20;1920.00;;;;;;5093250;28;20099;-68
2021/01/14 03:37:49;;;;;;;17.10;8.15;;;26.50;1894.40;;;;;;5092530;28;20414;-69
2021/01/14 03:40:16;;;;;;;19.30;9.15;;;26.50;1868.80;;;;;;5092489;28;20024;-70
2021/01/14 03:42:41;;;;;;;18.67;8.90;;;26.50;1894.40;;;;;;5078179;28;20024;-65
2021/01/14 03:45:07;;;;;;;18.95;8.27;;;51.20;1920.00;;;;;;5096664;28;20393;-70
2021/01/14 03:47:33;;;;;;;19.52;8.75;;;51.30;1894.40;;;;;;5096547;28;20016;-67
2021/01/14 03:50:00;;;;;;;18.85;8.43;;;51.30;1894.40;;;;;;5096665;28;20028;-70
2021/01/14 03:52:26;;;;;;;19.83;8.20;;;51.30;1894.40;;;;;;5096789;28;20016;-64
2021/01/14 03:54:51;;;;;;;17.83;8.00;;;51.40;1868.80;;;;;;5096230;28;20098;-66
2021/01/14 03:57:17;;;;;;;18.27;7.45;;;51.30;1894.40;;;;;;5096243;28;20105;-61
2021/01/14 03:59:43;;;;;;;19.90;7.72;;;51.30;1868.80;;;;;;5096583;28;20091;-67
2021/01/14 04:02:09;;;;;;;20.67;7.45;;;51.30;1868.80;;;;;;5096084;28;20115;-67
2021/01/14 04:04:43;;;;;;;19.52;7.40;;;51.20;1894.40;;;;;;5096169;28;20145;-69
2021/01/14 04:07:11;;;;;;;15.70;6.85;;;26.50;1894.40;;;;;;5096121;28;20111;-67
2021/01/14 04:09:38;;;;;;;20.70;8.43;;;26.50;1868.80;;;;;;5096084;28;20507;-69
2021/01/14 04:12:04;;;;;;;15.48;7.05;;;51.20;1894.40;;;;;;5095745;28;20089;-70
2021/01/14 04:14:30;;;;;;;17.58;6.82;;;51.20;1920.00;;;;;;5096027;28;20020;-70
2021/01/14 04:16:56;;;;;;;17.45;7.28;;;51.20;1894.40;;;;;;5096439;28;20039;-70
2021/01/14 04:19:22;;;;;;;14.50;6.75;;;51.30;1868.80;;;;;;5097270;28;20024;-70
2021/01/14 04:21:48;;;;;;;18.58;8.00;;;51.30;1894.40;;;;;;5097925;28;20102;-73
2021/01/14 04:24:14;;;;;;;18.60;7.78;;;51.40;1894.40;;;;;;5098054;28;20035;-73
2021/01/14 04:26:39;;;;;;;16.08;7.28;;;51.40;1894.40;;;;;;5097886;28;20020;-66
2021/01/14 04:29:06;;;;;;;19.48;9.05;;;51.20;1920.00;;;;;;5098386;28;20019;-71
2021/01/14 04:31:32;;;;;;;15.30;7.03;;;26.50;1894.40;;;;;;5098344;28;20055;-70
2021/01/14 04:33:58;;;;;;;16.27;8.55;;;26.50;1894.40;;;;;;5098421;28;20054;-70
2021/01/14 04:36:25;;;;;;;17.65;7.50;;;26.50;1894.40;;;;;;5099614;28;20480;-69
2021/01/14 04:38:51;;;;;;;12.77;6.60;;;26.40;1894.40;;;;;;5081174;28;20028;-73
2021/01/14 04:41:19;;;;;;;14.88;6.95;;;26.40;1920.00;;;;;;5098591;28;20059;-69
2021/01/14 04:43:45;;;;;;;12.18;5.85;;;26.50;1894.40;;;;;;5098097;28;20022;-70
2021/01/14 04:46:12;;;;;;;12.98;5.55;;;26.50;1868.80;;;;;;5098237;28;20032;-69
2021/01/14 04:48:43;;;;;;;18.13;5.88;;;51.20;1868.80;;;;;;5097693;28;20039;-70
2021/01/14 04:51:17;;;;;;;13.00;5.35;;;51.40;1868.80;;;;;;5098872;28;20024;-69
2021/01/14 04:53:48;;;;;;;13.13;5.35;;;51.40;1868.80;;;;;;5097981;28;20024;-68
2021/01/14 04:56:16;;;;;;;12.50;6.25;;;51.50;1843.20;;;;;;5097615;28;20390;-69
2021/01/14 04:58:46;;;;;;;14.60;5.85;;;51.50;1843.20;;;;;;5097678;28;20016;-64
2021/01/14 05:01:18;;;;;;;9.70;4.68;;;51.50;1817.60;;;;;;5098014;28;20124;-71
2021/01/14 05:03:49;;;;;;;11.18;4.90;;;51.50;1843.20;;;;;;5097219;28;20499;-70
2021/01/14 05:06:19;;;;;;;9.60;5.07;;;51.50;1843.20;;;;;;5085243;28;20063;-70
2021/01/14 05:08:49;;;;;;;14.43;5.65;;;51.50;1817.60;;;;;;5096883;28;20035;-69
2021/01/14 05:11:18;;;;;;;16.00;4.95;;;51.60;1817.60;;;;;;5097347;28;20499;-71
2021/01/14 05:13:45;;;;;;;;;;;51.60;1817.60;;;;;;5097449;28;20020;-71
2021/01/14 05:16:11;;;;;;;6.18;3.40;;;51.70;1792.00;;;;;;5098483;28;19999;-72
2021/01/14 05:18:37;;;;;;;8.35;4.20;;;51.60;1792.00;;;;;;5097090;28;20012;-72
2021/01/14 05:21:03;;;;;;;11.00;4.00;;;51.70;1792.00;;;;;;5098351;28;20523;-70
2021/01/14 05:23:31;;;;;;;10.05;4.78;;;51.50;1792.00;;;;;;5095818;28;20028;-64
2021/01/14 05:26:01;;;;;;;9.07;4.82;;;51.50;1766.40;;;;;;5095989;28;20035;-68
2021/01/14 05:28:29;;;;;;;8.90;4.68;;;51.40;1792.00;;;;;;5096767;28;20024;-67
2021/01/14 05:31:17;;;;;;;7.85;4.63;;;51.30;1792.00;;;;;;5098733;28;20021;-71
2021/01/14 05:33:43;;;;;;;7.88;4.30;;;51.30;1792.00;;;;;;5101602;28;20028;-66
2021/01/14 05:36:09;;;;;;;9.43;3.60;;;51.30;1817.60;;;;;;5099653;28;20036;-69
2021/01/14 05:38:35;;;;;;;8.10;3.70;;;51.30;1792.00;;;;;;5099920;28;20074;-70
2021/01/14 05:41:19;;;;;;;10.15;4.78;;;51.30;1792.00;;;;;;5100689;28;20024;-71
2021/01/14 05:43:51;;;;;;;10.52;5.20;;;51.20;1792.00;;;;;;5098901;28;20027;-72
2021/01/14 05:46:28;;;;;;;11.32;5.07;;;51.30;1817.60;;;;;;5096860;28;20055;-70
2021/01/14 05:48:59;;;;;;;10.85;4.70;;;51.30;1817.60;;;;;;5094224;28;20014;-71
2021/01/14 05:51:29;;;;;;;8.70;5.47;;;51.40;1792.00;;;;;;5094720;28;20039;-65
2021/01/14 05:53:59;;;;;;;9.45;5.15;;;51.40;1792.00;;;;;;5094043;28;20031;-69
2021/01/14 05:56:31;;;;;;;11.88;5.25;;;51.40;1792.00;;;;;;5094190;28;20453;-70
2021/01/14 05:58:57;;;;;;;13.52;6.18;;;51.40;1792.00;;;;;;5075269;28;20635;-70
2021/01/14 06:01:26;;;;;;;13.68;6.93;;;51.40;1792.00;;;;;;5092887;28;20013;-71
2021/01/14 06:03:52;;;;;;;15.57;6.93;;;51.50;1792.00;;;;;;5096494;28;20035;-70
2021/01/14 06:06:18;;;;;;;14.55;7.35;;;51.50;1792.00;;;;;;5099915;28;20129;-69
2021/01/14 06:08:44;;;;;;;13.50;6.20;;;51.40;1792.00;;;;;;5110593;28;20024;-70
2021/01/14 06:11:23;;;;;;;9.73;5.70;;;51.40;1792.00;;;;;;5103715;28;20446;-64
2021/01/14 06:13:49;;;;;;;;;;;51.50;1792.00;;;;;;5114490;28;20019;-64
2021/01/14 06:16:15;;;;;;;18.63;8.43;;;51.50;1766.40;;;;;;5114021;28;20004;-70
2021/01/14 06:19:01;;;;;;;11.75;6.40;;;51.50;1766.40;;;;;;5081471;28;20362;-70
2021/01/14 06:21:48;;;;;;;13.77;7.13;;;51.50;1766.40;;;;;;5112680;28;20049;-69
2021/01/14 06:24:27;;;;;;;17.92;11.68;;;51.60;1766.40;;;;;;5112389;28;20369;-71
2021/01/14 06:26:58;;;;;;;12.23;7.45;;;51.60;1766.40;;;;;;5113165;28;20028;-68
2021/01/14 06:29:28;;;;;;;12.25;6.72;;;51.70;1740.80;;;;;;5108286;28;20016;-69
2021/01/14 06:32:16;;;;;;;12.40;7.53;;;51.70;1740.80;;;;;;5111234;28;20469;-69
2021/01/14 06:34:47;;;;;;;10.30;6.22;;;51.80;1740.80;;;;;;5105673;28;20024;-71
2021/01/14 06:37:17;;;;;;;11.23;6.38;;;51.90;1740.80;;;;;;5112158;28;20043;-71
2021/01/14 06:39:45;;;;;;;13.32;6.78;;;51.80;1740.80;;;;;;5112874;28;20136;-71
2021/01/14 06:42:22;;;;;;;21.23;10.40;;;51.90;1766.40;;;;;;5110645;28;20039;-71
2021/01/14 06:44:55;;;;;;;11.75;7.05;;;52.00;1740.80;;;;;;5107055;28;20464;-66
2021/01/14 06:47:44;;;;;;;17.52;12.32;;;52.00;1715.20;;;;;;5095286;28;20114;-65
2021/01/14 06:50:18;;;;;;;18.02;9.38;;;52.00;1740.80;;;;;;5085692;28;20020;-69
2021/01/14 06:52:48;;;;;;;22.40;12.45;;;52.00;1740.80;;;;;;5106304;28;20027;-70
2021/01/14 06:55:15;;;;;;;25.48;17.17;;;52.00;1740.80;;;;;;5100752;28;20505;-68
2021/01/14 06:57:58;;;;;;;31.98;23.10;;;52.00;1740.80;;;;;;5111622;28;20427;-68
2021/01/14 07:00:28;;;;;;;24.08;15.93;;;52.10;1766.40;;;;;;5113558;28;20035;-68
2021/01/14 07:03:01;;;;;;;18.58;11.07;;;52.10;1740.80;;;;;;5107845;28;20539;-63
2021/01/14 07:05:37;;;;;;;16.70;9.13;;;76.80;1766.40;;;;;;5105276;28;20062;-74
2021/01/14 07:08:28;;;;;;;16.27;8.40;;;77.10;1740.80;;;;;;5113286;28;20454;-69
2021/01/14 07:11:18;;;;;;;15.38;7.90;;;77.10;1740.80;;;;;;5113221;28;20477;-70
2021/01/14 07:13:46;;;;;;;17.73;7.80;;;76.90;1715.20;;;;;;5010515;28;20085;-68
2021/01/14 07:16:20;;;;;;;13.43;7.68;;;77.10;1715.20;;;;;;5010435;28;20093;-71
2021/01/14 07:18:46;;;;;;;13.18;7.25;;;77.00;1638.40;;;;;;5010923;28;20022;-71
2021/01/14 07:21:32;;;;;;;15.75;7.53;;;77.00;1715.20;;;;;;4997042;28;20112;-70
2021/01/14 07:24:01;;;;;;;11.52;6.65;;;77.00;1664.00;;;;;;5010468;28;20100;-70
2021/01/14 07:26:27;;;;;;;15.05;8.15;;;77.30;1689.60;;;;;;5011847;28;20034;-70
2021/01/14 07:28:54;;;;;;;14.15;7.50;;;77.40;1664.00;;;;;;5012216;28;20029;-71
2021/01/14 07:31:21;;;;;;;16.25;7.40;;;77.60;1664.00;;;;;;5001160;28;20043;-70
2021/01/14 07:33:47;;;;;;;14.18;7.20;;;77.70;1638.40;;;;;;4991448;28;20038;-72
2021/01/14 07:36:19;;;;;;;16.95;7.95;;;102.50;1612.80;;;;;;4991284;28;20101;-68
2021/01/14 07:38:49;;;;;;;17.23;8.75;;;102.60;1612.80;;;;;;4991286;28;20034;-70
2021/01/14 07:41:15;;;;;;;17.67;8.30;;;102.40;1561.60;;;;;;4991181;28;20034;-70
2021/01/14 07:43:45;;;;;;;18.38;8.27;;;102.50;1561.60;;;;;;4990684;28;20037;-71
2021/01/14 07:46:14;;;;;;;18.27;7.80;;;102.60;1561.60;;;;;;4977747;28;20497;-73
2021/01/14 07:48:40;;;;;;;14.32;7.53;;;102.80;1510.40;;;;;;4990877;28;20049;-71
2021/01/14 07:51:06;;;;;;;25.55;13.35;;;102.80;1510.40;;;;;;5044334;28;20056;-69
2021/01/14 07:53:32;;;;;;;26.60;12.68;;;102.70;1587.20;;;;;;5092187;28;20052;-72
2021/01/14 07:56:26;;;;;;;32.72;16.20;;;102.80;1612.80;;;;;;5092215;28;20067;-69
2021/01/14 07:58:58;;;;;;;68.10;27.60;;;102.60;1638.40;;;;;;5092546;28;20056;-72
2021/01/14 08:01:24;;;;;;;38.33;19.35;;;102.60;1638.40;;;;;;5092383;28;20044;-69
2021/01/14 08:03:50;;;;;;;31.20;14.57;;;77.70;1689.60;;;;;;5092309;28;20028;-68
2021/01/14 08:06:27;;;;;;;22.75;12.52;;;102.40;1715.20;;;;;;5092144;28;20043;-67
2021/01/14 08:09:05;;;;;;;30.20;13.48;;;102.40;1689.60;;;;;;5092479;28;20020;-69
2021/01/14 08:11:55;;;;;;;22.83;11.32;;;102.40;1715.20;;;;;;5092146;28;20098;-64
2021/01/14 08:14:34;;;;;;;27.33;12.85;;;77.50;1715.20;;;;;;5090800;28;20038;-63
2021/01/14 08:17:01;;;;;;;;;;;77.70;1689.60;;;;;;5082174;28;20037;-64
2021/01/14 08:19:33;;;;;;;29.15;12.60;;;102.40;1715.20;;;;;;5103389;28;20331;-69
2021/01/14 08:21:58;;;;;;;25.83;12.73;;;102.40;1689.60;;;;;;5108235;28;20020;-68
2021/01/14 08:24:47;;;;;;;30.17;14.15;;;102.50;1689.60;;;;;;5112580;28;20081;-69
2021/01/14 08:27:31;;;;;;;34.88;15.70;;;77.70;1664.00;;;;;;5113402;28;20026;-68
2021/01/14 08:30:02;;;;;;;33.53;15.20;;;102.40;1664.00;;;;;;5116567;28;20458;-68
2021/01/14 08:32:59;;;;;;;28.77;13.68;;;102.50;1587.20;;;;;;5104880;28;20020;-69
2021/01/14 08:35:27;;;;;;;28.98;15.00;;;102.50;1587.20;;;;;;5082752;28;20055;-68
2021/01/14 08:37:56;;;;;;;34.40;17.00;;;77.60;1689.60;;;;;;5109485;28;20125;-69
2021/01/14 08:40:27;;;;;;;39.75;19.27;;;102.40;1715.20;;;;;;5081446;28;20043;-65
2021/01/14 08:43:15;;;;;;;45.95;21.17;;;77.60;1715.20;;;;;;5108388;28;20477;-68
2021/01/14 08:45:50;;;;;;;47.90;22.23;;;77.50;1766.40;;;;;;5091240;28;20051;-67
2021/01/14 08:48:26;;;;;;;45.42;21.65;;;77.70;1740.80;;;;;;5115012;28;20028;-69
2021/01/14 08:50:55;;;;;;;42.30;20.40;;;102.60;1664.00;;;;;;5095411;28;20417;-70
2021/01/14 08:53:29;;;;;;;47.08;21.23;;;102.70;1638.40;;;;;;5095734;28;20056;-69
2021/01/14 08:56:08;;;;;;;36.58;17.85;;;102.70;1638.40;;;;;;5115543;28;20023;-68
2021/01/14 08:58:48;;;;;;;34.13;16.92;;;102.70;1612.80;;;;;;5115678;28;20027;-70
2021/01/14 09:01:19;;;;;;;40.38;20.05;;;102.90;1612.80;;;;;;5116027;28;20399;-70
2021/01/14 09:03:47;;;;;;;45.75;22.80;;;103.00;1587.20;;;;;;5115199;28;20071;-66
2021/01/14 09:06:14;;;;;;;37.70;23.20;;;103.10;1536.00;;;;;;5115305;28;20043;-69
2021/01/14 09:08:39;;;;;;;34.22;16.67;;;103.00;1587.20;;;;;;5100540;28;20028;-69
2021/01/14 09:11:06;;;;;;;23.77;12.27;;;103.00;1587.20;;;;;;5095240;28;20023;-68
2021/01/14 09:13:33;;;;;;;31.88;16.90;;;102.80;1689.60;;;;;;5094512;28;20023;-68
2021/01/14 09:16:08;;;;;;;38.28;19.90;;;102.80;1689.60;;;;;;5094782;28;20036;-69
2021/01/14 09:18:41;;;;;;;31.35;17.27;;;102.70;1740.80;;;;;;5087075;28;20013;-68
2021/01/14 09:21:08;;;;;;;33.28;19.00;;;102.80;1766.40;;;;;;5094624;28;20060;-66
2021/01/14 09:23:38;;;;;;;36.22;19.83;;;102.80;1792.00;;;;;;5094610;28;20375;-68
2021/01/14 09:26:18;;;;;;;40.00;25.73;;;102.90;1792.00;;;;;;5094756;28;20028;-67
2021/01/14 09:28:52;;;;;;;46.60;22.25;;;102.90;1843.20;;;;;;5094628;28;20028;-68
2021/01/14 09:31:19;;;;;;;37.33;18.95;;;102.80;1868.80;;;;;;5094458;28;20089;-66
2021/01/14 09:33:46;;;;;;;38.83;19.05;;;102.80;1894.40;;;;;;5094557;28;20024;-69
2021/01/14 09:36:17;;;;;;;29.50;15.88;;;102.70;1945.60;;;;;;5094590;28;20040;-67
2021/01/14 09:38:52;;;;;;;39.95;20.27;;;102.60;1945.60;;;;;;5093915;28;20110;-66
2021/01/14 09:41:29;;;;;;;48.78;33.08;;;102.70;1971.20;;;;;;5094420;28;20024;-68
2021/01/14 09:44:10;;;;;;;28.15;16.40;;;102.70;1971.20;;;;;;5094446;28;20013;-70
2021/01/14 09:46:47;;;;;;;24.95;14.07;;;102.70;1971.20;;;;;;5094353;28;20028;-71
2021/01/14 09:49:14;;;;;;;22.52;11.95;;;102.40;2022.40;;;;;;5094368;28;20024;-71
2021/01/14 09:51:42;;;;;;;23.27;11.95;;;77.50;2048.00;;;;;;5094337;28;20063;-70
2021/01/14 09:54:09;;;;;;;22.20;13.00;;;77.30;2073.60;;;;;;5094293;28;20020;-69
2021/01/14 09:56:43;;;;;;;22.92;13.32;;;77.20;2124.80;;;;;;5093999;28;20511;-68
2021/01/14 09:59:29;;;;;;;31.85;18.73;;;77.00;2150.40;;;;;;5094094;28;20043;-68
2021/01/14 10:02:18;;;;;;;27.30;16.65;;;77.00;2176.00;;;;;;5093623;28;20024;-66
2021/01/14 10:04:50;;;;;;;;;;;76.90;2201.60;;;;;;5094563;28;20044;-68
2021/01/14 10:07:19;;;;;;;43.65;25.02;;;77.00;2201.60;;;;;;5093629;28;19912;-67
2021/01/14 10:09:50;;;;;;;29.90;17.92;;;77.00;2201.60;;;;;;5094101;28;20025;-67
2021/01/14 10:12:15;;;;;;;48.22;29.02;;;77.00;2201.60;;;;;;5093114;28;20017;-67
2021/01/14 10:14:41;;;;;;;40.20;23.73;;;76.90;2227.20;;;;;;5093811;28;20081;-67
2021/01/14 10:17:17;;;;;;;27.27;15.25;;;76.90;2227.20;;;;;;5098091;28;20032;-64
2021/01/14 10:19:51;;;;;;;25.60;16.73;;;76.90;2227.20;;;;;;5093980;28;20028;-69
2021/01/14 10:22:17;;;;;;;42.92;23.88;;;77.00;2201.60;;;;;;5096798;28;20390;-67
2021/01/14 10:24:43;;;;;;;38.85;25.20;;;77.10;2201.60;;;;;;5100918;28;20011;-65
2021/01/14 10:27:19;;;;;;;33.28;20.35;;;77.00;2201.60;;;;;;5099557;28;20488;-68
2021/01/14 10:29:46;;;;;;;27.52;16.38;;;77.00;2227.20;;;;;;5092792;28;20047;-68
2021/01/14 10:32:15;;;;;;;29.27;16.95;;;77.00;2227.20;;;;;;5097033;28;20086;-68
2021/01/14 10:34:42;;;;;;;;;;;77.00;2201.60;;;;;;5093812;28;20482;-67
2021/01/14 10:37:37;;;;;;;31.25;19.67;;;76.80;2227.20;;;;;;5100387;28;20278;-67
2021/01/14 10:40:17;;;;;;;27.88;16.60;;;76.80;2227.20;;;;;;4998389;28;20038;-67
2021/01/14 10:42:48;;;;;;;29.55;16.58;;;52.00;2227.20;;;;;;5010939;28;20022;-67
2021/01/14 10:45:21;;;;;;;32.15;17.65;;;51.90;2227.20;;;;;;5010968;28;20040;-66
2021/01/14 10:47:47;;;;;;;35.85;18.33;;;51.80;2227.20;;;;;;5011009;28;20044;-66
2021/01/14 10:50:27;;;;;;;34.83;20.90;;;51.80;2227.20;;;;;;5010580;28;20121;-66
2021/01/14 10:53:04;;;;;;;32.55;16.90;;;52.00;2227.20;;;;;;5010799;28;20084;-66
2021/01/14 10:55:34;;;;;;;37.90;20.63;;;52.00;2227.20;;;;;;5030733;28;20483;-66
2021/01/14 10:58:02;;;;;;;34.10;18.98;;;52.10;2227.20;;;;;;5016552;28;20037;-66
2021/01/14 11:00:39;;;;;;;35.38;18.90;;;76.80;2227.20;;;;;;5030933;28;20107;-67
2021/01/14 11:03:14;;;;;;;33.08;17.98;;;76.80;2227.20;;;;;;5030161;28;20041;-67
2021/01/14 11:05:59;;;;;;;26.05;13.85;;;76.80;2201.60;;;;;;5017753;28;20056;-68
2021/01/14 11:08:26;;;;;;;31.88;16.33;;;52.00;2227.20;;;;;;5030587;28;20037;-66
2021/01/14 11:11:05;;;;;;;30.55;16.77;;;51.90;2227.20;;;;;;5030773;28;20032;-66
2021/01/14 11:13:37;;;;;;;;;;;51.90;2227.20;;;;;;5028776;28;20036;-66
2021/01/14 11:16:04;;;;;;;33.75;18.85;;;51.90;2227.20;;;;;;5031926;28;19916;-66
2021/01/14 11:18:29;;;;;;;37.05;19.90;;;51.70;2227.20;;;;;;5102195;28;20020;-69
2021/01/14 11:20:55;;;;;;;36.25;19.25;;;51.60;2227.20;;;;;;5113303;28;20030;-66
2021/01/14 11:23:21;;;;;;;40.45;19.30;;;51.50;2227.20;;;;;;5113074;28;20054;-66
2021/01/14 11:25:46;;;;;;;34.53;19.50;;;51.20;2227.20;;;;;;5113026;28;20064;-68
2021/01/14 11:28:12;;;;;;;35.75;19.83;;;51.30;2227.20;;;;;;5102134;28;20028;-67
2021/01/14 11:30:38;;;;;;;39.53;20.83;;;26.50;2201.60;;;;;;5107387;28;20436;-67
2021/01/14 11:33:03;;;;;;;46.17;24.73;;;26.50;2201.60;;;;;;5101065;28;20411;-67
2021/01/14 11:35:29;;;;;;;42.72;22.48;;;51.20;2227.20;;;;;;5113009;28;20385;-66
2021/01/14 11:37:55;;;;;;;40.00;21.63;;;51.20;2227.20;;;;;;5098519;28;20023;-66
2021/01/14 11:40:20;;;;;;;38.92;22.67;;;51.20;2227.20;;;;;;5113236;28;20019;-66
2021/01/14 11:42:46;;;;;;;36.47;19.17;;;51.30;2227.20;;;;;;5112378;28;20080;-67
2021/01/14 11:45:12;;;;;;;37.40;20.90;;;51.30;2227.20;;;;;;5113057;28;20136;-66
2021/01/14 11:47:38;;;;;;;42.45;21.38;;;51.40;2227.20;;;;;;5112619;28;20097;-69
2021/01/14 11:50:04;;;;;;;31.63;18.23;;;51.40;2227.20;;;;;;5113023;28;20012;-67
2021/01/14 11:52:29;;;;;;;33.97;19.63;;;51.60;2227.20;;;;;;5112593;28;20024;-67
2021/01/14 11:54:56;;;;;;;36.50;19.55;;;51.70;2227.20;;;;;;5112798;28;20488;-67
2021/01/14 11:57:27;;;;;;;31.52;19.63;;;51.70;2227.20;;;;;;5112823;28;20035;-66
2021/01/14 11:59:53;;;;;;;33.45;17.55;;;51.70;2227.20;;;;;;5098285;28;20377;-67
2021/01/14 12:02:19;;;;;;;37.97;21.60;;;51.50;2227.20;;;;;;5115348;28;20020;-67
2021/01/14 12:04:45;;;;;;;35.38;19.58;;;51.60;2227.20;;;;;;5116789;28;20043;-66
2021/01/14 12:07:11;;;;;;;32.08;18.05;;;51.70;2227.20;;;;;;5116761;28;20028;-67
2021/01/14 12:09:36;;;;;;;29.35;15.55;;;51.70;2227.20;;;;;;5116830;28;20030;-67
2021/01/14 12:12:02;;;;;;;32.88;18.75;;;51.70;2227.20;;;;;;5117123;28;20032;-69
2021/01/14 12:14:28;;;;;;;36.75;21.73;;;51.50;2227.20;;;;;;5119044;28;20016;-71
2021/01/14 12:16:54;;;;;;;38.83;21.15;;;51.50;2227.20;;;;;;5114674;28;20117;-67
2021/01/14 12:19:19;;;;;;;31.60;20.02;;;51.70;2227.20;;;;;;5115770;28;20102;-70
2021/01/14 12:21:45;;;;;;;37.65;21.77;;;51.60;2227.20;;;;;;5102090;28;20028;-69
2021/01/14 12:24:11;;;;;;;36.00;22.55;;;51.80;2227.20;;;;;;5102928;28;20024;-65
2021/01/14 12:26:36;;;;;;;34.90;21.45;;;51.90;2227.20;;;;;;5094446;28;20455;-67